Timmins/Victor M. Power
CYTS : now visible

Airfield :











YOU CAN JOIN US ON...

 
LOGIN :

Register | Disclaimer

   EN    FR    IT 

 









Legend :    VFR   Marginal VFR   IFR   Intensive IFR   Very Intensive IFR
Visi :
Ceiling :
>= 8 km
>= 3000ft
5 to 8 km
1000 to 3000 ft
1500m to 5 km
500 to 1000 ft
800 to 1500m
200 to 500 ft
< 800m
< 200 ft
Symbols :   Thunderstorms  Fog  Heavy snow  Heavy precipitations  Wind > 20 kt






- Airport Elevation : 967 ft
- IATA code : YTS


CYTS - Timmins/Victor M. Power

CURRENT METAR :
  • 101000Z 32014G19KT 15SM -SN DRSN OVC008 M06/M07 A2960 RMK SC8 SLP043

EXPIRED METARs :
  • 100936Z 32015KT 15SM -SN DRSN OVC008 M06/M06 A2960 RMK SC8 SLP041
  • 100900Z 33015G22KT 15SM DRSN OVC009 M05/M06 A2958 RMK SC8 SLP036
  • 100841Z 32009G18KT 15SM DRSN BKN008 OVC010 M05/M06 A2958 RMK SF6SC2 SLP035
  • 100800Z 33012G18KT 15SM DRSN SCT008 OVC010 M05/M06 A2956 RMK SF3SC5 SLP028

TAF AMD TAF CYTS
Valid from the 10 at 10:00 until the 10 at 20:00 UTC


101010Z 1010/1020 32012G22KT 5SM -SN OVC008
TEMPO 1010/1012 P6SM -SN OVC015
FM101200 32012G22KT P6SM BKN015
TEMPO 1012/1016 BKN025
FM101600 32012G22KT P6SM BKN025
BECMG 1016/1018 32010KT RMK NXT FCST BY 101400Z



MET'MAP, your aeronautical weather chart ! - Copyright ORBIFLY December 2007 - Disclaimer

ORBIFLY MET'MAP TEAM :

Programming & Development : Alexandra Zaïnal
Concept & original design : Baudouin d'Aumeries
Assistance for programming : Marc-Olivier Méhu
Technical & hardware support : Manuel Goepfert

Contact : metmap@orbifly.com




SOURCES & CREDITS :

   NOAA       Earth
Advisory